sensor_id;sensor_type;location;lat;lon;timestamp;P1;durP1;ratioP1;P2;durP2;ratioP2
7193;SDS011;3638;48.820;9.244;2023-01-31T00:01:11;9.80;;;5.77;;
7193;SDS011;3638;48.820;9.244;2023-01-31T00:03:42;8.23;;;5.80;;
7193;SDS011;3638;48.820;9.244;2023-01-31T00:06:10;12.83;;;5.83;;
7193;SDS011;3638;48.820;9.244;2023-01-31T00:08:40;6.87;;;5.27;;
7193;SDS011;3638;48.820;9.244;2023-01-31T00:11:08;8.50;;;5.13;;
7193;SDS011;3638;48.820;9.244;2023-01-31T00:13:35;6.97;;;5.53;;
7193;SDS011;3638;48.820;9.244;2023-01-31T00:16:03;10.63;;;6.33;;
7193;SDS011;3638;48.820;9.244;2023-01-31T00:18:31;8.60;;;5.67;;
7193;SDS011;3638;48.820;9.244;2023-01-31T00:21:03;11.07;;;5.20;;
7193;SDS011;3638;48.820;9.244;2023-01-31T00:23:32;9.53;;;6.10;;
7193;SDS011;3638;48.820;9.244;2023-01-31T00:26:05;6.43;;;5.20;;
7193;SDS011;3638;48.820;9.244;2023-01-31T00:28:34;10.70;;;5.40;;
7193;SDS011;3638;48.820;9.244;2023-01-31T00:31:01;8.70;;;5.80;;
7193;SDS011;3638;48.820;9.244;2023-01-31T00:33:28;11.77;;;5.53;;
7193;SDS011;3638;48.820;9.244;2023-01-31T00:35:55;8.47;;;5.63;;
7193;SDS011;3638;48.820;9.244;2023-01-31T00:38:23;7.53;;;5.40;;
7193;SDS011;3638;48.820;9.244;2023-01-31T00:40:50;11.20;;;5.33;;
7193;SDS011;3638;48.820;9.244;2023-01-31T00:43:18;8.07;;;5.10;;
7193;SDS011;3638;48.820;9.244;2023-01-31T00:45:45;10.57;;;6.47;;
7193;SDS011;3638;48.820;9.244;2023-01-31T00:48:11;10.73;;;5.70;;
7193;SDS011;3638;48.820;9.244;2023-01-31T00:50:39;7.57;;;5.40;;
7193;SDS011;3638;48.820;9.244;2023-01-31T00:53:06;7.60;;;4.90;;
7193;SDS011;3638;48.820;9.244;2023-01-31T00:55:34;11.20;;;5.07;;
7193;SDS011;3638;48.820;9.244;2023-01-31T00:58:01;7.87;;;4.60;;
7193;SDS011;3638;48.820;9.244;2023-01-31T01:00:28;8.47;;;4.80;;
7193;SDS011;3638;48.820;9.244;2023-01-31T01:02:56;7.17;;;5.40;;
7193;SDS011;3638;48.820;9.244;2023-01-31T01:05:22;11.40;;;5.40;;
7193;SDS011;3638;48.820;9.244;2023-01-31T01:07:49;10.57;;;5.53;;
7193;SDS011;3638;48.820;9.244;2023-01-31T01:10:16;8.63;;;5.60;;
7193;SDS011;3638;48.820;9.244;2023-01-31T01:12:45;7.13;;;5.40;;
7193;SDS011;3638;48.820;9.244;2023-01-31T01:15:11;9.93;;;5.07;;
7193;SDS011;3638;48.820;9.244;2023-01-31T01:17:38;8.13;;;5.07;;
7193;SDS011;3638;48.820;9.244;2023-01-31T01:20:06;5.10;;;4.53;;
7193;SDS011;3638;48.820;9.244;2023-01-31T01:22:36;8.53;;;4.73;;
7193;SDS011;3638;48.820;9.244;2023-01-31T01:25:03;8.60;;;4.60;;
7193;SDS011;3638;48.820;9.244;2023-01-31T01:27:31;9.40;;;4.70;;
7193;SDS011;3638;48.820;9.244;2023-01-31T01:30:00;6.47;;;4.20;;
7193;SDS011;3638;48.820;9.244;2023-01-31T01:32:26;8.13;;;4.47;;
7193;SDS011;3638;48.820;9.244;2023-01-31T01:34:53;9.00;;;4.90;;
7193;SDS011;3638;48.820;9.244;2023-01-31T01:37:20;6.57;;;4.17;;
7193;SDS011;3638;48.820;9.244;2023-01-31T01:39:48;5.93;;;4.67;;
7193;SDS011;3638;48.820;9.244;2023-01-31T01:42:16;12.50;;;5.60;;
7193;SDS011;3638;48.820;9.244;2023-01-31T01:44:47;12.00;;;5.10;;
7193;SDS011;3638;48.820;9.244;2023-01-31T01:47:31;7.73;;;4.40;;
7193;SDS011;3638;48.820;9.244;2023-01-31T01:50:06;8.67;;;5.47;;
7193;SDS011;3638;48.820;9.244;2023-01-31T01:52:41;11.10;;;5.47;;
7193;SDS011;3638;48.820;9.244;2023-01-31T01:55:15;6.27;;;4.50;;
7193;SDS011;3638;48.820;9.244;2023-01-31T01:57:49;8.30;;;5.30;;
7193;SDS011;3638;48.820;9.244;2023-01-31T02:00:21;8.27;;;4.90;;
7193;SDS011;3638;48.820;9.244;2023-01-31T02:02:52;9.40;;;4.90;;
7193;SDS011;3638;48.820;9.244;2023-01-31T02:05:27;8.13;;;5.30;;
7193;SDS011;3638;48.820;9.244;2023-01-31T02:07:58;10.37;;;5.60;;
7193;SDS011;3638;48.820;9.244;2023-01-31T02:10:27;9.90;;;5.43;;
7193;SDS011;3638;48.820;9.244;2023-01-31T02:12:57;9.77;;;5.30;;
7193;SDS011;3638;48.820;9.244;2023-01-31T02:15:25;9.20;;;4.90;;
7193;SDS011;3638;48.820;9.244;2023-01-31T02:17:53;7.77;;;4.80;;
7193;SDS011;3638;48.820;9.244;2023-01-31T02:20:24;11.07;;;5.87;;
7193;SDS011;3638;48.820;9.244;2023-01-31T02:23:12;11.83;;;5.80;;
7193;SDS011;3638;48.820;9.244;2023-01-31T02:26:13;10.67;;;5.37;;
7193;SDS011;3638;48.820;9.244;2023-01-31T02:29:28;8.47;;;5.60;;
7193;SDS011;3638;48.820;9.244;2023-01-31T02:32:28;8.63;;;5.80;;
7193;SDS011;3638;48.820;9.244;2023-01-31T02:35:11;8.77;;;5.80;;
7193;SDS011;3638;48.820;9.244;2023-01-31T02:37:51;11.30;;;5.90;;
7193;SDS011;3638;48.820;9.244;2023-01-31T02:40:28;10.67;;;6.10;;
7193;SDS011;3638;48.820;9.244;2023-01-31T02:43:04;9.10;;;5.33;;
7193;SDS011;3638;48.820;9.244;2023-01-31T02:45:38;9.77;;;5.43;;
7193;SDS011;3638;48.820;9.244;2023-01-31T02:48:18;8.07;;;5.73;;
7193;SDS011;3638;48.820;9.244;2023-01-31T02:50:59;10.73;;;5.60;;
7193;SDS011;3638;48.820;9.244;2023-01-31T02:53:32;8.43;;;5.90;;
7193;SDS011;3638;48.820;9.244;2023-01-31T02:56:02;12.37;;;6.23;;
7193;SDS011;3638;48.820;9.244;2023-01-31T02:58:43;9.07;;;6.03;;
7193;SDS011;3638;48.820;9.244;2023-01-31T03:01:16;7.13;;;5.67;;
7193;SDS011;3638;48.820;9.244;2023-01-31T03:03:49;13.87;;;6.33;;
7193;SDS011;3638;48.820;9.244;2023-01-31T03:09:32;9.73;;;5.90;;
7193;SDS011;3638;48.820;9.244;2023-01-31T03:15:09;9.30;;;6.00;;
7193;SDS011;3638;48.820;9.244;2023-01-31T03:18:17;9.47;;;5.37;;
7193;SDS011;3638;48.820;9.244;2023-01-31T03:20:51;10.93;;;6.20;;
7193;SDS011;3638;48.820;9.244;2023-01-31T03:23:22;9.00;;;6.00;;
7193;SDS011;3638;48.820;9.244;2023-01-31T03:25:53;10.43;;;6.10;;
7193;SDS011;3638;48.820;9.244;2023-01-31T03:28:24;11.07;;;6.00;;
7193;SDS011;3638;48.820;9.244;2023-01-31T03:30:55;9.73;;;6.10;;
7193;SDS011;3638;48.820;9.244;2023-01-31T03:33:29;10.13;;;6.30;;
7193;SDS011;3638;48.820;9.244;2023-01-31T03:36:03;13.70;;;6.70;;
7193;SDS011;3638;48.820;9.244;2023-01-31T03:38:43;10.07;;;6.20;;
7193;SDS011;3638;48.820;9.244;2023-01-31T03:41:23;9.53;;;5.83;;
7193;SDS011;3638;48.820;9.244;2023-01-31T03:43:57;12.23;;;6.00;;
7193;SDS011;3638;48.820;9.244;2023-01-31T03:46:29;9.70;;;5.40;;
7193;SDS011;3638;48.820;9.244;2023-01-31T03:49:03;8.07;;;5.40;;
7193;SDS011;3638;48.820;9.244;2023-01-31T03:51:35;9.17;;;6.03;;
7193;SDS011;3638;48.820;9.244;2023-01-31T03:54:07;8.50;;;5.33;;
7193;SDS011;3638;48.820;9.244;2023-01-31T03:56:40;9.23;;;5.30;;
7193;SDS011;3638;48.820;9.244;2023-01-31T03:59:12;7.47;;;5.40;;
7193;SDS011;3638;48.820;9.244;2023-01-31T04:01:45;8.77;;;5.47;;
7193;SDS011;3638;48.820;9.244;2023-01-31T04:04:15;10.73;;;5.77;;
7193;SDS011;3638;48.820;9.244;2023-01-31T04:06:46;9.90;;;5.63;;
7193;SDS011;3638;48.820;9.244;2023-01-31T04:09:13;10.07;;;5.53;;
7193;SDS011;3638;48.820;9.244;2023-01-31T04:11:41;9.57;;;5.73;;
7193;SDS011;3638;48.820;9.244;2023-01-31T04:14:11;9.23;;;5.73;;
7193;SDS011;3638;48.820;9.244;2023-01-31T04:16:39;11.63;;;5.83;;
7193;SDS011;3638;48.820;9.244;2023-01-31T04:19:06;11.87;;;6.50;;
7193;SDS011;3638;48.820;9.244;2023-01-31T04:21:32;11.17;;;5.93;;
7193;SDS011;3638;48.820;9.244;2023-01-31T04:24:01;9.63;;;5.63;;
7193;SDS011;3638;48.820;9.244;2023-01-31T04:26:28;8.87;;;5.50;;
7193;SDS011;3638;48.820;9.244;2023-01-31T04:28:54;12.30;;;6.23;;
7193;SDS011;3638;48.820;9.244;2023-01-31T04:31:21;10.83;;;6.00;;
7193;SDS011;3638;48.820;9.244;2023-01-31T04:33:48;11.00;;;5.50;;
7193;SDS011;3638;48.820;9.244;2023-01-31T04:36:15;9.93;;;5.50;;
7193;SDS011;3638;48.820;9.244;2023-01-31T04:38:41;9.60;;;5.80;;
7193;SDS011;3638;48.820;9.244;2023-01-31T04:41:10;12.77;;;6.53;;
7193;SDS011;3638;48.820;9.244;2023-01-31T04:43:36;8.93;;;5.70;;
7193;SDS011;3638;48.820;9.244;2023-01-31T04:46:03;9.00;;;6.30;;
7193;SDS011;3638;48.820;9.244;2023-01-31T04:48:30;13.37;;;6.10;;
7193;SDS011;3638;48.820;9.244;2023-01-31T04:50:57;9.47;;;5.70;;
7193;SDS011;3638;48.820;9.244;2023-01-31T04:53:24;12.27;;;5.63;;
7193;SDS011;3638;48.820;9.244;2023-01-31T04:55:52;14.00;;;6.07;;
7193;SDS011;3638;48.820;9.244;2023-01-31T04:58:21;11.93;;;6.10;;
7193;SDS011;3638;48.820;9.244;2023-01-31T05:00:48;9.27;;;5.83;;
7193;SDS011;3638;48.820;9.244;2023-01-31T05:03:15;11.60;;;5.83;;
7193;SDS011;3638;48.820;9.244;2023-01-31T05:05:42;10.00;;;5.87;;
7193;SDS011;3638;48.820;9.244;2023-01-31T05:08:09;8.77;;;5.93;;
7193;SDS011;3638;48.820;9.244;2023-01-31T05:10:36;11.80;;;6.23;;
7193;SDS011;3638;48.820;9.244;2023-01-31T05:13:02;8.73;;;6.03;;
7193;SDS011;3638;48.820;9.244;2023-01-31T05:15:30;12.07;;;6.47;;
7193;SDS011;3638;48.820;9.244;2023-01-31T05:17:57;9.10;;;6.20;;
7193;SDS011;3638;48.820;9.244;2023-01-31T05:20:27;11.60;;;6.10;;
7193;SDS011;3638;48.820;9.244;2023-01-31T05:22:56;10.50;;;6.70;;
7193;SDS011;3638;48.820;9.244;2023-01-31T05:25:23;12.67;;;6.73;;
7193;SDS011;3638;48.820;9.244;2023-01-31T05:27:50;9.23;;;6.00;;
7193;SDS011;3638;48.820;9.244;2023-01-31T05:30:17;10.30;;;6.03;;
7193;SDS011;3638;48.820;9.244;2023-01-31T05:32:46;9.40;;;5.80;;
7193;SDS011;3638;48.820;9.244;2023-01-31T05:35:13;12.07;;;6.47;;
7193;SDS011;3638;48.820;9.244;2023-01-31T05:37:41;11.27;;;6.53;;
7193;SDS011;3638;48.820;9.244;2023-01-31T05:40:09;8.43;;;5.53;;
7193;SDS011;3638;48.820;9.244;2023-01-31T05:42:37;13.07;;;6.93;;
7193;SDS011;3638;48.820;9.244;2023-01-31T05:45:04;13.47;;;6.50;;
7193;SDS011;3638;48.820;9.244;2023-01-31T05:47:33;11.97;;;7.43;;
7193;SDS011;3638;48.820;9.244;2023-01-31T05:50:02;11.80;;;6.60;;
7193;SDS011;3638;48.820;9.244;2023-01-31T05:52:30;14.80;;;6.73;;
7193;SDS011;3638;48.820;9.244;2023-01-31T05:54:57;10.93;;;6.47;;
7193;SDS011;3638;48.820;9.244;2023-01-31T05:57:27;11.83;;;7.23;;
7193;SDS011;3638;48.820;9.244;2023-01-31T05:59:53;10.87;;;6.53;;
7193;SDS011;3638;48.820;9.244;2023-01-31T06:02:20;11.43;;;6.23;;
7193;SDS011;3638;48.820;9.244;2023-01-31T06:04:47;10.97;;;6.47;;
7193;SDS011;3638;48.820;9.244;2023-01-31T06:07:15;17.40;;;6.53;;
7193;SDS011;3638;48.820;9.244;2023-01-31T06:09:42;14.37;;;6.97;;
7193;SDS011;3638;48.820;9.244;2023-01-31T06:12:10;10.23;;;6.93;;
7193;SDS011;3638;48.820;9.244;2023-01-31T06:14:39;11.17;;;6.37;;
7193;SDS011;3638;48.820;9.244;2023-01-31T06:17:10;14.77;;;7.33;;
7193;SDS011;3638;48.820;9.244;2023-01-31T06:19:37;12.73;;;6.93;;
7193;SDS011;3638;48.820;9.244;2023-01-31T06:22:04;16.40;;;7.97;;
7193;SDS011;3638;48.820;9.244;2023-01-31T06:24:32;16.73;;;7.47;;
7193;SDS011;3638;48.820;9.244;2023-01-31T06:26:59;13.93;;;6.97;;
7193;SDS011;3638;48.820;9.244;2023-01-31T06:29:26;11.80;;;7.73;;
7193;SDS011;3638;48.820;9.244;2023-01-31T06:31:53;9.93;;;7.10;;
7193;SDS011;3638;48.820;9.244;2023-01-31T06:34:19;12.07;;;7.17;;
7193;SDS011;3638;48.820;9.244;2023-01-31T06:36:46;12.17;;;7.20;;
7193;SDS011;3638;48.820;9.244;2023-01-31T06:39:13;10.73;;;7.17;;
7193;SDS011;3638;48.820;9.244;2023-01-31T06:41:42;8.97;;;6.70;;
7193;SDS011;3638;48.820;9.244;2023-01-31T06:44:08;10.50;;;7.40;;
7193;SDS011;3638;48.820;9.244;2023-01-31T06:46:35;13.77;;;7.90;;
7193;SDS011;3638;48.820;9.244;2023-01-31T06:49:02;14.53;;;7.57;;
7193;SDS011;3638;48.820;9.244;2023-01-31T06:51:29;13.47;;;8.07;;
7193;SDS011;3638;48.820;9.244;2023-01-31T06:53:56;13.37;;;7.73;;
7193;SDS011;3638;48.820;9.244;2023-01-31T06:56:23;11.13;;;7.70;;
7193;SDS011;3638;48.820;9.244;2023-01-31T06:58:51;13.43;;;7.57;;
7193;SDS011;3638;48.820;9.244;2023-01-31T07:01:18;13.37;;;8.00;;
7193;SDS011;3638;48.820;9.244;2023-01-31T07:03:48;10.00;;;7.67;;
7193;SDS011;3638;48.820;9.244;2023-01-31T07:06:15;15.27;;;8.57;;
7193;SDS011;3638;48.820;9.244;2023-01-31T07:08:44;15.47;;;8.57;;
7193;SDS011;3638;48.820;9.244;2023-01-31T07:11:11;13.60;;;8.23;;
7193;SDS011;3638;48.820;9.244;2023-01-31T07:13:38;11.60;;;7.83;;
7193;SDS011;3638;48.820;9.244;2023-01-31T07:16:06;12.97;;;8.33;;
7193;SDS011;3638;48.820;9.244;2023-01-31T07:18:33;11.27;;;7.73;;
7193;SDS011;3638;48.820;9.244;2023-01-31T07:21:00;13.43;;;7.93;;
7193;SDS011;3638;48.820;9.244;2023-01-31T07:23:27;12.63;;;7.80;;
7193;SDS011;3638;48.820;9.244;2023-01-31T07:25:54;9.30;;;7.23;;
7193;SDS011;3638;48.820;9.244;2023-01-31T07:28:21;11.90;;;7.27;;
7193;SDS011;3638;48.820;9.244;2023-01-31T07:30:48;13.13;;;7.90;;
7193;SDS011;3638;48.820;9.244;2023-01-31T07:33:17;10.37;;;7.77;;
7193;SDS011;3638;48.820;9.244;2023-01-31T07:35:44;10.53;;;7.07;;
7193;SDS011;3638;48.820;9.244;2023-01-31T07:38:11;10.17;;;7.40;;
7193;SDS011;3638;48.820;9.244;2023-01-31T07:40:38;10.43;;;6.50;;
7193;SDS011;3638;48.820;9.244;2023-01-31T07:43:05;10.20;;;6.90;;
7193;SDS011;3638;48.820;9.244;2023-01-31T07:45:31;10.30;;;6.57;;
7193;SDS011;3638;48.820;9.244;2023-01-31T07:47:58;11.07;;;6.97;;
7193;SDS011;3638;48.820;9.244;2023-01-31T07:50:27;9.37;;;6.40;;
7193;SDS011;3638;48.820;9.244;2023-01-31T07:52:56;12.10;;;6.53;;
7193;SDS011;3638;48.820;9.244;2023-01-31T07:55:23;16.33;;;6.93;;
7193;SDS011;3638;48.820;9.244;2023-01-31T07:57:50;13.23;;;6.40;;
7193;SDS011;3638;48.820;9.244;2023-01-31T08:00:18;12.20;;;6.97;;
7193;SDS011;3638;48.820;9.244;2023-01-31T08:03:03;10.53;;;6.73;;
7193;SDS011;3638;48.820;9.244;2023-01-31T08:05:49;12.97;;;7.47;;
7193;SDS011;3638;48.820;9.244;2023-01-31T08:08:16;10.23;;;6.37;;
7193;SDS011;3638;48.820;9.244;2023-01-31T08:10:43;9.70;;;6.93;;
7193;SDS011;3638;48.820;9.244;2023-01-31T08:13:14;8.70;;;5.90;;
7193;SDS011;3638;48.820;9.244;2023-01-31T08:15:40;8.73;;;6.20;;
7193;SDS011;3638;48.820;9.244;2023-01-31T08:18:07;11.93;;;7.70;;
7193;SDS011;3638;48.820;9.244;2023-01-31T08:20:34;9.17;;;5.93;;
7193;SDS011;3638;48.820;9.244;2023-01-31T08:23:05;11.00;;;6.63;;
7193;SDS011;3638;48.820;9.244;2023-01-31T08:25:32;15.43;;;6.80;;
7193;SDS011;3638;48.820;9.244;2023-01-31T08:27:59;13.37;;;6.63;;
7193;SDS011;3638;48.820;9.244;2023-01-31T08:30:25;16.87;;;7.20;;
7193;SDS011;3638;48.820;9.244;2023-01-31T08:32:53;11.57;;;5.53;;
7193;SDS011;3638;48.820;9.244;2023-01-31T08:35:20;9.93;;;5.60;;
7193;SDS011;3638;48.820;9.244;2023-01-31T08:37:50;15.90;;;5.73;;
7193;SDS011;3638;48.820;9.244;2023-01-31T08:40:19;8.50;;;5.53;;
7193;SDS011;3638;48.820;9.244;2023-01-31T08:42:52;9.27;;;5.57;;
7193;SDS011;3638;48.820;9.244;2023-01-31T08:45:20;8.83;;;4.77;;
7193;SDS011;3638;48.820;9.244;2023-01-31T08:47:47;10.63;;;4.70;;
7193;SDS011;3638;48.820;9.244;2023-01-31T08:50:14;8.83;;;4.90;;
7193;SDS011;3638;48.820;9.244;2023-01-31T08:52:41;9.60;;;4.43;;
7193;SDS011;3638;48.820;9.244;2023-01-31T08:55:08;8.43;;;4.60;;
7193;SDS011;3638;48.820;9.244;2023-01-31T08:57:40;11.77;;;4.60;;
7193;SDS011;3638;48.820;9.244;2023-01-31T09:00:10;10.17;;;4.30;;
7193;SDS011;3638;48.820;9.244;2023-01-31T09:02:38;11.40;;;4.47;;
7193;SDS011;3638;48.820;9.244;2023-01-31T09:05:05;8.83;;;4.43;;
7193;SDS011;3638;48.820;9.244;2023-01-31T09:07:36;9.47;;;4.77;;
7193;SDS011;3638;48.820;9.244;2023-01-31T09:10:03;12.17;;;4.67;;
7193;SDS011;3638;48.820;9.244;2023-01-31T09:12:32;10.90;;;4.70;;
7193;SDS011;3638;48.820;9.244;2023-01-31T09:15:01;9.73;;;5.07;;
7193;SDS011;3638;48.820;9.244;2023-01-31T09:17:29;10.23;;;4.90;;
7193;SDS011;3638;48.820;9.244;2023-01-31T09:19:56;18.10;;;5.37;;
7193;SDS011;3638;48.820;9.244;2023-01-31T09:22:23;7.87;;;4.60;;
7193;SDS011;3638;48.820;9.244;2023-01-31T09:24:50;9.40;;;5.30;;
7193;SDS011;3638;48.820;9.244;2023-01-31T09:27:17;11.07;;;4.97;;
7193;SDS011;3638;48.820;9.244;2023-01-31T09:29:43;12.10;;;4.80;;
7193;SDS011;3638;48.820;9.244;2023-01-31T09:32:12;11.87;;;4.70;;
7193;SDS011;3638;48.820;9.244;2023-01-31T09:34:38;9.37;;;4.83;;
7193;SDS011;3638;48.820;9.244;2023-01-31T09:37:05;8.97;;;4.70;;
7193;SDS011;3638;48.820;9.244;2023-01-31T09:39:32;11.43;;;4.83;;
7193;SDS011;3638;48.820;9.244;2023-01-31T09:42:00;12.50;;;5.90;;
7193;SDS011;3638;48.820;9.244;2023-01-31T09:44:38;7.30;;;5.20;;
7193;SDS011;3638;48.820;9.244;2023-01-31T09:47:08;9.47;;;4.93;;
7193;SDS011;3638;48.820;9.244;2023-01-31T09:49:46;10.20;;;4.70;;
7193;SDS011;3638;48.820;9.244;2023-01-31T09:52:17;10.70;;;4.90;;
7193;SDS011;3638;48.820;9.244;2023-01-31T09:54:44;10.43;;;5.30;;
7193;SDS011;3638;48.820;9.244;2023-01-31T09:57:14;12.33;;;5.37;;
7193;SDS011;3638;48.820;9.244;2023-01-31T09:59:53;11.17;;;4.83;;
7193;SDS011;3638;48.820;9.244;2023-01-31T10:05:28;8.53;;;4.40;;
7193;SDS011;3638;48.820;9.244;2023-01-31T10:08:05;12.57;;;4.97;;
7193;SDS011;3638;48.820;9.244;2023-01-31T10:10:42;9.20;;;4.90;;
7193;SDS011;3638;48.820;9.244;2023-01-31T10:13:16;11.53;;;4.83;;
7193;SDS011;3638;48.820;9.244;2023-01-31T10:15:49;8.83;;;4.63;;
7193;SDS011;3638;48.820;9.244;2023-01-31T10:18:24;9.33;;;4.87;;
7193;SDS011;3638;48.820;9.244;2023-01-31T10:20:55;8.37;;;4.60;;
7193;SDS011;3638;48.820;9.244;2023-01-31T10:23:27;10.40;;;4.77;;
7193;SDS011;3638;48.820;9.244;2023-01-31T10:25:59;9.17;;;4.57;;
7193;SDS011;3638;48.820;9.244;2023-01-31T10:28:32;7.27;;;4.00;;
7193;SDS011;3638;48.820;9.244;2023-01-31T10:31:04;10.40;;;4.33;;
7193;SDS011;3638;48.820;9.244;2023-01-31T10:33:40;12.00;;;5.50;;
7193;SDS011;3638;48.820;9.244;2023-01-31T10:36:17;8.30;;;4.57;;
7193;SDS011;3638;48.820;9.244;2023-01-31T10:38:53;11.43;;;4.73;;
7193;SDS011;3638;48.820;9.244;2023-01-31T10:41:30;9.20;;;4.87;;
7193;SDS011;3638;48.820;9.244;2023-01-31T10:44:11;8.97;;;4.20;;
7193;SDS011;3638;48.820;9.244;2023-01-31T10:46:46;8.73;;;4.53;;
7193;SDS011;3638;48.820;9.244;2023-01-31T10:49:15;9.93;;;4.77;;
7193;SDS011;3638;48.820;9.244;2023-01-31T10:51:47;8.97;;;4.20;;
7193;SDS011;3638;48.820;9.244;2023-01-31T10:54:33;9.77;;;4.10;;
7193;SDS011;3638;48.820;9.244;2023-01-31T10:57:15;9.50;;;4.27;;
7193;SDS011;3638;48.820;9.244;2023-01-31T10:59:43;8.53;;;4.20;;
7193;SDS011;3638;48.820;9.244;2023-01-31T11:02:17;10.77;;;4.33;;
7193;SDS011;3638;48.820;9.244;2023-01-31T11:04:48;8.73;;;4.20;;
7193;SDS011;3638;48.820;9.244;2023-01-31T11:07:17;10.20;;;4.30;;
7193;SDS011;3638;48.820;9.244;2023-01-31T11:09:46;9.23;;;4.43;;
7193;SDS011;3638;48.820;9.244;2023-01-31T11:12:15;9.40;;;4.00;;
7193;SDS011;3638;48.820;9.244;2023-01-31T11:14:42;6.87;;;3.87;;
7193;SDS011;3638;48.820;9.244;2023-01-31T11:17:13;10.07;;;4.17;;
7193;SDS011;3638;48.820;9.244;2023-01-31T11:19:43;8.17;;;3.83;;
7193;SDS011;3638;48.820;9.244;2023-01-31T11:22:17;11.30;;;4.97;;
7193;SDS011;3638;48.820;9.244;2023-01-31T11:24:50;12.30;;;4.53;;
7193;SDS011;3638;48.820;9.244;2023-01-31T11:27:23;6.57;;;3.67;;
7193;SDS011;3638;48.820;9.244;2023-01-31T11:29:52;8.57;;;4.07;;
7193;SDS011;3638;48.820;9.244;2023-01-31T11:32:22;10.57;;;4.30;;
7193;SDS011;3638;48.820;9.244;2023-01-31T11:34:58;8.57;;;3.97;;
7193;SDS011;3638;48.820;9.244;2023-01-31T11:37:27;9.33;;;4.07;;
7193;SDS011;3638;48.820;9.244;2023-01-31T11:39:55;8.50;;;3.83;;
7193;SDS011;3638;48.820;9.244;2023-01-31T11:42:24;7.87;;;4.00;;
7193;SDS011;3638;48.820;9.244;2023-01-31T11:44:56;19.07;;;3.97;;
7193;SDS011;3638;48.820;9.244;2023-01-31T11:47:27;9.00;;;3.83;;
7193;SDS011;3638;48.820;9.244;2023-01-31T11:50:04;9.90;;;3.97;;
7193;SDS011;3638;48.820;9.244;2023-01-31T11:52:33;9.33;;;4.23;;
7193;SDS011;3638;48.820;9.244;2023-01-31T11:55:01;10.83;;;3.63;;
7193;SDS011;3638;48.820;9.244;2023-01-31T11:57:32;9.13;;;3.77;;
7193;SDS011;3638;48.820;9.244;2023-01-31T12:00:03;9.97;;;4.17;;
7193;SDS011;3638;48.820;9.244;2023-01-31T12:02:34;17.40;;;4.40;;
7193;SDS011;3638;48.820;9.244;2023-01-31T12:05:09;9.33;;;3.87;;
7193;SDS011;3638;48.820;9.244;2023-01-31T12:07:42;8.03;;;4.30;;
7193;SDS011;3638;48.820;9.244;2023-01-31T12:10:25;10.63;;;3.90;;
7193;SDS011;3638;48.820;9.244;2023-01-31T12:13:11;10.27;;;4.63;;
7193;SDS011;3638;48.820;9.244;2023-01-31T12:15:50;7.43;;;3.60;;
7193;SDS011;3638;48.820;9.244;2023-01-31T12:18:28;7.13;;;3.47;;
7193;SDS011;3638;48.820;9.244;2023-01-31T12:21:26;6.33;;;3.63;;
7193;SDS011;3638;48.820;9.244;2023-01-31T12:24:12;10.20;;;3.70;;
7193;SDS011;3638;48.820;9.244;2023-01-31T12:26:53;9.13;;;3.57;;
7193;SDS011;3638;48.820;9.244;2023-01-31T12:29:26;7.67;;;3.40;;
7193;SDS011;3638;48.820;9.244;2023-01-31T12:32:20;6.80;;;3.60;;
7193;SDS011;3638;48.820;9.244;2023-01-31T12:35:03;6.57;;;3.03;;
7193;SDS011;3638;48.820;9.244;2023-01-31T12:37:56;5.70;;;3.00;;
7193;SDS011;3638;48.820;9.244;2023-01-31T12:40:35;8.73;;;3.30;;
7193;SDS011;3638;48.820;9.244;2023-01-31T12:43:10;8.70;;;3.70;;
7193;SDS011;3638;48.820;9.244;2023-01-31T12:45:59;7.80;;;3.10;;
7193;SDS011;3638;48.820;9.244;2023-01-31T12:48:36;7.30;;;3.00;;
7193;SDS011;3638;48.820;9.244;2023-01-31T12:51:44;5.80;;;3.07;;
7193;SDS011;3638;48.820;9.244;2023-01-31T12:54:29;4.10;;;3.00;;
7193;SDS011;3638;48.820;9.244;2023-01-31T12:57:18;5.23;;;3.17;;
7193;SDS011;3638;48.820;9.244;2023-01-31T12:59:59;8.03;;;3.47;;
7193;SDS011;3638;48.820;9.244;2023-01-31T13:02:42;9.03;;;3.73;;
7193;SDS011;3638;48.820;9.244;2023-01-31T13:05:23;7.37;;;3.47;;
7193;SDS011;3638;48.820;9.244;2023-01-31T13:07:55;7.10;;;3.37;;
7193;SDS011;3638;48.820;9.244;2023-01-31T13:10:32;6.00;;;3.00;;
7193;SDS011;3638;48.820;9.244;2023-01-31T13:13:03;6.47;;;2.90;;
7193;SDS011;3638;48.820;9.244;2023-01-31T13:15:43;6.90;;;3.30;;
7193;SDS011;3638;48.820;9.244;2023-01-31T13:18:14;7.17;;;3.33;;
7193;SDS011;3638;48.820;9.244;2023-01-31T13:20:42;8.83;;;3.33;;
7193;SDS011;3638;48.820;9.244;2023-01-31T13:23:16;9.33;;;3.60;;
7193;SDS011;3638;48.820;9.244;2023-01-31T13:25:50;7.23;;;3.70;;
7193;SDS011;3638;48.820;9.244;2023-01-31T13:28:22;9.83;;;3.53;;
7193;SDS011;3638;48.820;9.244;2023-01-31T13:30:55;7.47;;;3.10;;
7193;SDS011;3638;48.820;9.244;2023-01-31T13:33:26;5.43;;;3.10;;
7193;SDS011;3638;48.820;9.244;2023-01-31T13:36:02;5.07;;;3.63;;
7193;SDS011;3638;48.820;9.244;2023-01-31T13:38:41;7.10;;;3.53;;
7193;SDS011;3638;48.820;9.244;2023-01-31T13:41:12;4.83;;;3.50;;
7193;SDS011;3638;48.820;9.244;2023-01-31T13:43:50;7.07;;;3.77;;
7193;SDS011;3638;48.820;9.244;2023-01-31T13:46:18;8.53;;;3.90;;
7193;SDS011;3638;48.820;9.244;2023-01-31T13:48:50;6.37;;;3.80;;
7193;SDS011;3638;48.820;9.244;2023-01-31T13:51:22;6.93;;;3.77;;
7193;SDS011;3638;48.820;9.244;2023-01-31T13:53:55;5.63;;;3.40;;
7193;SDS011;3638;48.820;9.244;2023-01-31T13:56:29;8.07;;;3.97;;
7193;SDS011;3638;48.820;9.244;2023-01-31T13:58:59;6.73;;;3.70;;
7193;SDS011;3638;48.820;9.244;2023-01-31T14:01:27;8.93;;;3.93;;
7193;SDS011;3638;48.820;9.244;2023-01-31T14:06:55;6.37;;;3.53;;
7193;SDS011;3638;48.820;9.244;2023-01-31T14:22:27;6.17;;;3.50;;
7193;SDS011;3638;48.820;9.244;2023-01-31T14:24:59;7.27;;;3.73;;
7193;SDS011;3638;48.820;9.244;2023-01-31T14:27:32;6.57;;;3.93;;
7193;SDS011;3638;48.820;9.244;2023-01-31T14:30:18;7.33;;;3.20;;
7193;SDS011;3638;48.820;9.244;2023-01-31T14:33:01;6.23;;;3.40;;
7193;SDS011;3638;48.820;9.244;2023-01-31T14:42:13;9.13;;;3.90;;
7193;SDS011;3638;48.820;9.244;2023-01-31T14:44:58;6.43;;;3.77;;
7193;SDS011;3638;48.820;9.244;2023-01-31T14:48:22;8.67;;;4.03;;
7193;SDS011;3638;48.820;9.244;2023-01-31T14:51:12;6.43;;;4.00;;
7193;SDS011;3638;48.820;9.244;2023-01-31T14:53:56;4.43;;;3.73;;
7193;SDS011;3638;48.820;9.244;2023-01-31T14:56:51;5.97;;;3.80;;
7193;SDS011;3638;48.820;9.244;2023-01-31T14:59:34;7.57;;;4.57;;
7193;SDS011;3638;48.820;9.244;2023-01-31T15:02:19;7.90;;;4.80;;
7193;SDS011;3638;48.820;9.244;2023-01-31T15:05:13;5.23;;;4.33;;
7193;SDS011;3638;48.820;9.244;2023-01-31T15:07:56;15.30;;;7.30;;
7193;SDS011;3638;48.820;9.244;2023-01-31T15:16:18;5.97;;;3.83;;
7193;SDS011;3638;48.820;9.244;2023-01-31T15:18:49;5.73;;;3.93;;
7193;SDS011;3638;48.820;9.244;2023-01-31T15:21:26;5.50;;;3.63;;
7193;SDS011;3638;48.820;9.244;2023-01-31T15:23:56;5.53;;;4.13;;
7193;SDS011;3638;48.820;9.244;2023-01-31T15:26:27;5.90;;;3.63;;
7193;SDS011;3638;48.820;9.244;2023-01-31T15:28:58;6.17;;;3.80;;
7193;SDS011;3638;48.820;9.244;2023-01-31T15:31:28;8.40;;;3.93;;
7193;SDS011;3638;48.820;9.244;2023-01-31T15:34:00;5.03;;;3.80;;
7193;SDS011;3638;48.820;9.244;2023-01-31T15:36:37;6.27;;;4.17;;
7193;SDS011;3638;48.820;9.244;2023-01-31T15:39:18;6.10;;;3.77;;
7193;SDS011;3638;48.820;9.244;2023-01-31T15:41:48;6.90;;;4.33;;
7193;SDS011;3638;48.820;9.244;2023-01-31T15:44:16;6.10;;;3.80;;
7193;SDS011;3638;48.820;9.244;2023-01-31T15:46:46;5.10;;;3.93;;
7193;SDS011;3638;48.820;9.244;2023-01-31T15:49:22;9.33;;;3.90;;
7193;SDS011;3638;48.820;9.244;2023-01-31T15:52:10;5.37;;;3.77;;
7193;SDS011;3638;48.820;9.244;2023-01-31T15:54:49;6.07;;;4.57;;
7193;SDS011;3638;48.820;9.244;2023-01-31T15:57:20;6.30;;;4.07;;
7193;SDS011;3638;48.820;9.244;2023-01-31T15:59:51;6.00;;;4.27;;
7193;SDS011;3638;48.820;9.244;2023-01-31T16:02:20;7.13;;;4.50;;
7193;SDS011;3638;48.820;9.244;2023-01-31T16:04:51;11.73;;;5.43;;
7193;SDS011;3638;48.820;9.244;2023-01-31T16:07:27;6.30;;;4.20;;
7193;SDS011;3638;48.820;9.244;2023-01-31T16:09:55;4.57;;;4.17;;
7193;SDS011;3638;48.820;9.244;2023-01-31T16:12:25;6.97;;;4.03;;
7193;SDS011;3638;48.820;9.244;2023-01-31T16:14:54;6.90;;;3.97;;
7193;SDS011;3638;48.820;9.244;2023-01-31T16:17:26;12.57;;;8.20;;